createdAt,value
2022-10-05T00:01:27.115Z,41.75
2022-10-05T00:06:21.050Z,42.10
2022-10-05T00:11:16.009Z,43.42
2022-10-05T00:16:13.483Z,49.42
2022-10-05T00:21:19.752Z,46.47
2022-10-05T00:26:19.163Z,43.83
2022-10-05T00:31:18.852Z,50.08
2022-10-05T00:36:12.223Z,46.90
2022-10-05T00:41:18.943Z,49.15
2022-10-05T00:46:30.628Z,49.35
2022-10-05T00:51:30.112Z,48.30
2022-10-05T00:56:36.025Z,45.13
2022-10-05T01:01:43.408Z,45.75
2022-10-05T01:07:00.571Z,42.25
2022-10-05T01:12:21.928Z,50.13
2022-10-05T01:17:22.932Z,52.60
2022-10-05T01:22:27.671Z,52.38
2022-10-05T01:27:40.758Z,49.88
2022-10-05T01:32:42.323Z,51.45
2022-10-05T01:37:52.951Z,50.85
2022-10-05T01:43:10.868Z,50.85
2022-10-05T01:48:36.260Z,53.75
2022-10-05T01:53:40.791Z,54.85
2022-10-05T01:58:40.097Z,50.92
2022-10-05T02:03:42.836Z,52.13
2022-10-05T02:08:42.201Z,54.43
2022-10-05T02:14:08.253Z,49.85
2022-10-05T02:19:35.761Z,45.92
2022-10-05T02:24:54.067Z,43.75
2022-10-05T02:29:50.486Z,41.67
2022-10-05T02:34:44.631Z,41.50
2022-10-05T02:40:06.230Z,46.35
2022-10-05T02:45:25.587Z,43.97
2022-10-05T02:50:36.789Z,43.70
2022-10-05T02:56:03.554Z,48.30
2022-10-05T03:01:10.290Z,45.40
2022-10-05T03:06:19.229Z,47.30
2022-10-05T03:11:27.341Z,49.45
2022-10-05T03:16:33.748Z,50.78
2022-10-05T03:21:49.433Z,49.60
2022-10-05T03:27:05.309Z,49.33
2022-10-05T03:32:19.475Z,56.70
2022-10-05T03:37:56.275Z,52.25
2022-10-05T03:43:04.295Z,44.58
2022-10-05T03:48:10.746Z,47.30
2022-10-05T03:53:12.631Z,48.58
2022-10-05T03:58:44.796Z,51.53
2022-10-05T04:03:50.583Z,50.83
2022-10-05T04:08:52.181Z,48.90
2022-10-05T04:14:02.072Z,41.75
2022-10-05T04:19:04.567Z,47.45
2022-10-05T04:24:00.952Z,51.90
2022-10-05T04:29:23.108Z,49.50
2022-10-05T04:34:47.899Z,45.65
2022-10-05T04:39:49.969Z,48.67
2022-10-05T04:44:59.319Z,36.05
2022-10-05T04:50:07.628Z,40.75
2022-10-05T04:55:19.097Z,42.88
2022-10-05T05:00:30.693Z,42.13
2022-10-05T05:06:15.318Z,45.17
2022-10-05T05:11:24.544Z,38.17
2022-10-05T05:16:41.039Z,36.78
2022-10-05T05:21:50.023Z,37.03
2022-10-05T05:27:24.258Z,26.67
2022-10-05T05:32:41.285Z,31.40
2022-10-05T05:37:53.556Z,30.70
2022-10-05T05:43:11.770Z,32.00
2022-10-05T05:48:27.766Z,35.83
2022-10-05T05:53:48.511Z,38.05
2022-10-05T05:58:54.699Z,39.80
2022-10-05T06:03:59.153Z,38.28
2022-10-05T06:08:56.664Z,41.05
2022-10-05T06:14:14.174Z,48.13
2022-10-05T06:19:19.057Z,51.20
2022-10-05T06:24:22.159Z,54.28
2022-10-05T06:29:22.187Z,60.65
2022-10-05T06:34:37.118Z,63.92
2022-10-05T06:40:30.332Z,70.20
2022-10-05T06:45:27.940Z,60.30
2022-10-05T06:50:49.786Z,50.17
2022-10-05T06:56:18.577Z,48.95
2022-10-05T07:01:39.368Z,50.53
2022-10-05T07:06:47.263Z,46.92
2022-10-05T07:11:57.403Z,41.28
2022-10-05T07:17:04.887Z,43.75
2022-10-05T07:22:19.444Z,42.38
2022-10-05T07:27:35.351Z,46.97
2022-10-05T07:32:49.969Z,49.88
2022-10-05T07:37:58.618Z,48.58
2022-10-05T07:43:01.301Z,53.85
2022-10-05T07:48:02.458Z,62.65
2022-10-05T07:53:06.438Z,55.20
2022-10-05T07:58:32.029Z,49.38
2022-10-05T08:03:36.696Z,51.72
2022-10-05T08:08:45.784Z,47.10
2022-10-05T08:13:57.212Z,48.13
2022-10-05T08:19:07.281Z,46.38
2022-10-05T08:24:25.340Z,53.00
2022-10-05T08:29:36.129Z,48.45
2022-10-05T08:34:52.278Z,52.33
2022-10-05T08:40:27.660Z,59.55
2022-10-05T08:45:39.093Z,53.30
2022-10-05T08:50:41.815Z,52.10
2022-10-05T08:55:43.896Z,50.10
2022-10-05T09:00:52.728Z,51.77
2022-10-05T09:05:45.459Z,49.08
2022-10-05T09:15:47.704Z,50.55
2022-10-05T09:20:53.514Z,49.00
2022-10-05T09:26:30.332Z,48.03
2022-10-05T09:31:43.170Z,54.75
2022-10-05T09:37:26.809Z,44.88
2022-10-05T09:42:48.622Z,45.75
2022-10-05T09:48:26.987Z,41.75
2022-10-05T09:53:57.542Z,39.13
2022-10-05T09:59:10.900Z,44.42
2022-10-05T10:09:40.908Z,30.15
2022-10-05T10:14:49.717Z,30.55
2022-10-05T10:20:01.339Z,33.13
2022-10-05T10:25:13.676Z,30.38
2022-10-05T10:30:36.558Z,32.30
2022-10-05T10:35:38.362Z,39.47
2022-10-05T10:40:38.949Z,38.53
2022-10-05T10:45:54.757Z,40.90
2022-10-05T10:51:02.393Z,38.20
2022-10-05T10:56:22.649Z,29.70
2022-10-05T11:01:46.860Z,35.17
2022-10-05T11:06:59.467Z,33.33
2022-10-05T11:12:08.252Z,29.33
2022-10-05T11:18:01.589Z,31.38
2022-10-05T11:23:27.540Z,29.35
2022-10-05T11:28:55.806Z,29.50
2022-10-05T11:34:04.682Z,27.13
2022-10-05T11:39:09.558Z,33.00
2022-10-05T11:44:17.951Z,23.00
2022-10-05T11:49:35.103Z,29.75
2022-10-05T11:55:12.781Z,21.95
2022-10-05T12:00:26.644Z,23.17
2022-10-05T12:05:26.326Z,31.10
2022-10-05T12:10:25.598Z,31.60
2022-10-05T12:15:44.559Z,37.00
2022-10-05T12:20:46.739Z,32.55
2022-10-05T12:25:47.070Z,30.92
2022-10-05T12:31:09.627Z,28.05
2022-10-05T12:36:09.112Z,29.88
2022-10-05T12:41:25.657Z,27.65
2022-10-05T12:46:37.103Z,26.83
2022-10-05T12:51:51.935Z,28.02
2022-10-05T12:57:10.676Z,19.35
2022-10-05T13:02:16.253Z,18.63
2022-10-05T13:07:46.582Z,18.65
2022-10-05T13:12:52.381Z,17.98
2022-10-05T13:17:57.611Z,17.15
2022-10-05T13:23:28.403Z,15.82
2022-10-05T13:28:41.784Z,20.15
2022-10-05T13:33:53.060Z,18.13
2022-10-05T13:39:12.281Z,19.35
2022-10-05T13:44:24.357Z,17.60
2022-10-05T13:50:08.958Z,15.32
2022-10-05T13:55:23.200Z,15.27
2022-10-05T14:00:26.520Z,16.67
2022-10-05T14:05:30.077Z,19.38
2022-10-05T14:10:57.430Z,13.68
2022-10-05T14:16:21.423Z,16.13
2022-10-05T14:21:19.170Z,19.45
2022-10-05T14:26:20.947Z,14.85
2022-10-05T14:31:18.186Z,16.90
2022-10-05T14:36:53.990Z,15.07
2022-10-05T14:41:49.766Z,19.35
2022-10-05T14:46:55.784Z,13.15
2022-10-05T14:51:54.232Z,14.68
2022-10-05T14:57:15.014Z,16.38
2022-10-05T15:02:27.067Z,18.35
2022-10-05T15:07:32.372Z,14.73
2022-10-05T15:12:32.865Z,14.25
2022-10-05T15:17:32.210Z,14.32
2022-10-05T15:22:47.059Z,18.00
2022-10-05T15:27:57.534Z,12.68
2022-10-05T15:33:07.576Z,17.17
2022-10-05T15:38:21.849Z,12.88
2022-10-05T15:43:21.447Z,9.20
2022-10-05T15:48:30.187Z,13.82
2022-10-05T15:53:35.912Z,11.80
2022-10-05T15:58:43.777Z,11.85
2022-10-05T16:03:46.922Z,11.90
2022-10-05T16:08:58.677Z,9.82
2022-10-05T16:14:31.288Z,13.27
2022-10-05T16:19:28.956Z,14.18
2022-10-05T16:24:44.268Z,12.80
2022-10-05T16:29:57.140Z,13.10
2022-10-05T16:35:02.516Z,13.13
2022-10-05T16:40:00.635Z,8.88
2022-10-05T16:45:16.794Z,15.27
2022-10-05T16:50:32.384Z,13.88
2022-10-05T16:55:37.537Z,9.65
2022-10-05T17:00:45.905Z,9.60
2022-10-05T17:06:08.431Z,13.75
2022-10-05T17:11:04.212Z,12.77
2022-10-05T17:16:34.387Z,9.10
2022-10-05T17:21:46.205Z,8.25
2022-10-05T17:27:04.276Z,14.90
2022-10-05T17:32:09.752Z,13.98
2022-10-05T17:37:39.480Z,15.82
2022-10-05T17:42:34.681Z,15.02
2022-10-05T17:47:59.782Z,13.20
2022-10-05T17:53:37.363Z,12.95
2022-10-05T17:58:31.497Z,23.30
2022-10-05T18:03:46.297Z,21.13
2022-10-05T18:08:39.519Z,17.98
2022-10-05T18:18:43.308Z,16.75
2022-10-05T18:23:37.368Z,17.80
2022-10-05T18:30:09.418Z,20.13
2022-10-05T18:35:21.077Z,16.33
2022-10-05T18:40:36.910Z,18.65
2022-10-05T18:46:09.508Z,15.93
2022-10-05T18:51:27.987Z,16.25
2022-10-05T18:56:41.977Z,22.88
2022-10-05T19:02:11.810Z,18.13
2022-10-05T19:07:11.893Z,17.83
2022-10-05T19:12:16.556Z,18.27
2022-10-05T19:17:47.108Z,17.50
2022-10-05T19:22:49.974Z,18.20
2022-10-05T19:27:55.703Z,18.55
2022-10-05T19:33:23.221Z,21.70
2022-10-05T19:38:46.662Z,19.80
2022-10-05T19:44:04.853Z,17.20
2022-10-05T19:48:59.167Z,18.85
2022-10-05T19:53:56.137Z,19.60
2022-10-05T19:58:51.264Z,17.75
2022-10-05T20:03:48.219Z,21.58
2022-10-05T20:09:02.889Z,24.90
2022-10-05T20:13:55.558Z,22.05
2022-10-05T20:19:08.147Z,21.85
2022-10-05T20:24:21.270Z,21.42
2022-10-05T20:29:16.120Z,26.17
2022-10-05T20:34:10.314Z,20.00
2022-10-05T20:39:04.499Z,21.05
2022-10-05T20:43:58.108Z,22.73
2022-10-05T20:48:54.210Z,21.83
2022-10-05T20:53:48.316Z,22.80
2022-10-05T20:58:44.795Z,20.90
2022-10-05T21:03:38.447Z,22.90
2022-10-05T21:08:32.451Z,20.92
2022-10-05T21:13:27.575Z,26.45
2022-10-05T21:18:21.784Z,21.20
2022-10-05T21:23:15.800Z,25.08
2022-10-05T21:28:09.637Z,28.13
2022-10-05T21:33:03.583Z,21.17
2022-10-05T21:37:58.206Z,22.33
2022-10-05T21:42:52.383Z,25.60
2022-10-05T21:47:46.421Z,27.95
2022-10-05T21:52:41.111Z,26.20
2022-10-05T21:57:38.552Z,26.58
2022-10-05T22:02:32.833Z,24.05
2022-10-05T22:07:25.892Z,24.63
2022-10-05T22:12:20.855Z,20.92
2022-10-05T22:17:25.653Z,25.73
2022-10-05T22:22:19.991Z,22.50
2022-10-05T22:27:13.943Z,32.55
2022-10-05T22:32:08.102Z,29.33
2022-10-05T22:37:02.647Z,22.00
2022-10-05T22:41:56.963Z,20.75
2022-10-05T22:46:50.044Z,26.95
2022-10-05T22:51:44.056Z,23.25
2022-10-05T22:56:38.261Z,25.17
2022-10-05T23:01:32.060Z,22.20
2022-10-05T23:06:28.523Z,27.30
2022-10-05T23:11:27.699Z,29.90
2022-10-05T23:16:21.942Z,29.52
2022-10-05T23:21:16.313Z,34.00
2022-10-05T23:26:12.167Z,32.25
2022-10-05T23:31:09.275Z,34.03
2022-10-05T23:36:25.922Z,35.17
2022-10-05T23:41:20.287Z,34.75
2022-10-05T23:46:15.069Z,34.55
2022-10-05T23:51:11.547Z,33.50
2022-10-05T23:56:06.088Z,35.33
